sensor_id;sensor_type;location;lat;lon;timestamp;pressure;altitude;pressure_sealevel;temperature;humidity
18527;BME280;9393;42.158;24.748;2022-09-13T00:00:21;99187.59;;;20.09;55.38
18527;BME280;9393;42.158;24.748;2022-09-13T00:03:24;99195.63;;;19.83;56.08
18527;BME280;9393;42.158;24.748;2022-09-13T00:06:29;99189.78;;;19.68;56.51
18527;BME280;9393;42.158;24.748;2022-09-13T00:09:32;99185.16;;;19.50;56.63
18527;BME280;9393;42.158;24.748;2022-09-13T00:12:36;99188.38;;;19.59;56.61
18527;BME280;9393;42.158;24.748;2022-09-13T00:15:42;99181.16;;;19.92;56.09
18527;BME280;9393;42.158;24.748;2022-09-13T00:18:46;99181.88;;;19.61;56.08
18527;BME280;9393;42.158;24.748;2022-09-13T00:21:51;99186.41;;;19.48;56.69
18527;BME280;9393;42.158;24.748;2022-09-13T00:24:54;99179.63;;;19.52;56.48
18527;BME280;9393;42.158;24.748;2022-09-13T00:27:57;99179.44;;;19.60;55.89
18527;BME280;9393;42.158;24.748;2022-09-13T00:31:02;99172.53;;;19.52;55.87
18527;BME280;9393;42.158;24.748;2022-09-13T00:34:06;99172.03;;;19.82;55.13
18527;BME280;9393;42.158;24.748;2022-09-13T00:37:11;99172.50;;;19.59;56.25
18527;BME280;9393;42.158;24.748;2022-09-13T00:40:14;99179.63;;;19.58;55.94
18527;BME280;9393;42.158;24.748;2022-09-13T00:43:19;99174.47;;;19.77;55.24
18527;BME280;9393;42.158;24.748;2022-09-13T00:46:28;99168.44;;;19.56;56.29
18527;BME280;9393;42.158;24.748;2022-09-13T00:49:35;99176.97;;;19.65;55.88
18527;BME280;9393;42.158;24.748;2022-09-13T00:52:43;99176.16;;;19.64;55.63
18527;BME280;9393;42.158;24.748;2022-09-13T00:55:50;99173.00;;;19.87;54.88
18527;BME280;9393;42.158;24.748;2022-09-13T00:58:57;99174.50;;;19.70;55.47
18527;BME280;9393;42.158;24.748;2022-09-13T01:02:03;99170.47;;;19.61;56.17
18527;BME280;9393;42.158;24.748;2022-09-13T01:05:07;99169.72;;;19.47;56.20
18527;BME280;9393;42.158;24.748;2022-09-13T01:08:13;99167.16;;;19.79;55.71
18527;BME280;9393;42.158;24.748;2022-09-13T01:11:29;99169.25;;;19.63;55.87
18527;BME280;9393;42.158;24.748;2022-09-13T01:14:33;99168.09;;;19.97;55.02
18527;BME280;9393;42.158;24.748;2022-09-13T01:17:38;99170.31;;;20.00;55.30
18527;BME280;9393;42.158;24.748;2022-09-13T01:21:06;99166.00;;;19.55;56.46
18527;BME280;9393;42.158;24.748;2022-09-13T01:24:42;99168.66;;;19.55;56.56
18527;BME280;9393;42.158;24.748;2022-09-13T01:28:07;99162.94;;;19.64;55.85
18527;BME280;9393;42.158;24.748;2022-09-13T01:31:19;99165.81;;;19.56;56.39
18527;BME280;9393;42.158;24.748;2022-09-13T01:34:34;99167.09;;;19.92;54.89
18527;BME280;9393;42.158;24.748;2022-09-13T01:37:49;99157.63;;;19.71;55.86
18527;BME280;9393;42.158;24.748;2022-09-13T01:41:00;99151.31;;;19.65;55.67
18527;BME280;9393;42.158;24.748;2022-09-13T01:44:16;99155.41;;;19.55;56.12
18527;BME280;9393;42.158;24.748;2022-09-13T01:47:26;99149.34;;;19.41;56.70
18527;BME280;9393;42.158;24.748;2022-09-13T01:50:37;99158.50;;;19.39;57.00
18527;BME280;9393;42.158;24.748;2022-09-13T01:53:48;99167.69;;;19.30;56.61
18527;BME280;9393;42.158;24.748;2022-09-13T01:56:59;99160.75;;;19.42;56.50
18527;BME280;9393;42.158;24.748;2022-09-13T02:00:09;99160.94;;;19.53;56.42
18527;BME280;9393;42.158;24.748;2022-09-13T02:03:17;99155.03;;;19.38;56.58
18527;BME280;9393;42.158;24.748;2022-09-13T02:06:25;99162.97;;;19.38;56.46
18527;BME280;9393;42.158;24.748;2022-09-13T02:09:33;99164.19;;;19.49;55.90
18527;BME280;9393;42.158;24.748;2022-09-13T02:12:39;99160.75;;;19.35;56.52
18527;BME280;9393;42.158;24.748;2022-09-13T02:15:46;99155.50;;;19.15;57.32
18527;BME280;9393;42.158;24.748;2022-09-13T02:18:55;99154.47;;;19.23;56.83
18527;BME280;9393;42.158;24.748;2022-09-13T02:22:02;99143.50;;;19.00;57.20
18527;BME280;9393;42.158;24.748;2022-09-13T02:25:12;99156.13;;;19.04;56.64
18527;BME280;9393;42.158;24.748;2022-09-13T02:28:20;99159.19;;;19.01;56.88
18527;BME280;9393;42.158;24.748;2022-09-13T02:31:28;99152.19;;;19.40;55.86
18527;BME280;9393;42.158;24.748;2022-09-13T02:34:38;99145.88;;;19.34;55.39
18527;BME280;9393;42.158;24.748;2022-09-13T02:37:44;99152.56;;;19.56;54.83
18527;BME280;9393;42.158;24.748;2022-09-13T02:40:55;99157.09;;;19.36;55.51
18527;BME280;9393;42.158;24.748;2022-09-13T02:44:03;99161.19;;;19.12;56.31
18527;BME280;9393;42.158;24.748;2022-09-13T02:47:15;99157.72;;;19.18;56.08
18527;BME280;9393;42.158;24.748;2022-09-13T02:50:43;99153.06;;;19.07;56.11
18527;BME280;9393;42.158;24.748;2022-09-13T02:53:52;99157.13;;;19.03;56.30
18527;BME280;9393;42.158;24.748;2022-09-13T02:57:00;99159.16;;;19.41;54.94
18527;BME280;9393;42.158;24.748;2022-09-13T03:00:05;99164.88;;;18.92;56.46
18527;BME280;9393;42.158;24.748;2022-09-13T03:03:10;99163.22;;;19.10;55.68
18527;BME280;9393;42.158;24.748;2022-09-13T03:06:22;99158.31;;;19.21;55.48
18527;BME280;9393;42.158;24.748;2022-09-13T03:09:26;99163.00;;;19.18;55.70
18527;BME280;9393;42.158;24.748;2022-09-13T03:12:52;99156.31;;;19.23;55.38
18527;BME280;9393;42.158;24.748;2022-09-13T03:16:05;99168.25;;;19.58;54.20
18527;BME280;9393;42.158;24.748;2022-09-13T03:19:22;99165.44;;;19.27;54.94
18527;BME280;9393;42.158;24.748;2022-09-13T03:22:43;99178.22;;;19.49;53.91
18527;BME280;9393;42.158;24.748;2022-09-13T03:26:16;99176.44;;;19.10;54.88
18527;BME280;9393;42.158;24.748;2022-09-13T03:29:26;99180.09;;;19.42;54.29
18527;BME280;9393;42.158;24.748;2022-09-13T03:32:35;99187.38;;;19.40;54.22
18527;BME280;9393;42.158;24.748;2022-09-13T03:35:48;99179.88;;;19.37;54.83
18527;BME280;9393;42.158;24.748;2022-09-13T03:39:02;99185.59;;;19.01;56.09
18527;BME280;9393;42.158;24.748;2022-09-13T03:42:11;99189.44;;;19.25;55.81
18527;BME280;9393;42.158;24.748;2022-09-13T03:45:20;99194.34;;;19.15;55.74
18527;BME280;9393;42.158;24.748;2022-09-13T03:48:26;99188.22;;;19.28;55.95
18527;BME280;9393;42.158;24.748;2022-09-13T03:51:30;99185.41;;;19.03;56.43
18527;BME280;9393;42.158;24.748;2022-09-13T03:54:36;99190.06;;;19.01;56.45
18527;BME280;9393;42.158;24.748;2022-09-13T03:57:40;99193.53;;;18.88;56.88
18527;BME280;9393;42.158;24.748;2022-09-13T04:00:43;99182.75;;;18.77;56.92
18527;BME280;9393;42.158;24.748;2022-09-13T04:03:47;99185.81;;;18.67;57.07
18527;BME280;9393;42.158;24.748;2022-09-13T04:06:57;99187.03;;;18.71;57.33
18527;BME280;9393;42.158;24.748;2022-09-13T04:10:05;99184.38;;;18.84;56.91
18527;BME280;9393;42.158;24.748;2022-09-13T04:13:14;99189.66;;;18.78;56.81
18527;BME280;9393;42.158;24.748;2022-09-13T04:16:17;99196.56;;;18.72;56.39
18527;BME280;9393;42.158;24.748;2022-09-13T04:19:21;99195.78;;;18.78;56.73
18527;BME280;9393;42.158;24.748;2022-09-13T04:22:25;99190.06;;;19.07;55.99
18527;BME280;9393;42.158;24.748;2022-09-13T04:25:29;99197.78;;;19.15;55.44
18527;BME280;9393;42.158;24.748;2022-09-13T04:28:32;99201.25;;;19.03;nan
18527;BME280;9393;42.158;24.748;2022-09-13T04:31:36;99192.91;;;18.93;55.58
18527;BME280;9393;42.158;24.748;2022-09-13T04:34:39;99188.84;;;18.77;56.30
18527;BME280;9393;42.158;24.748;2022-09-13T04:37:43;99193.34;;;19.09;55.55
18527;BME280;9393;42.158;24.748;2022-09-13T04:40:52;99196.38;;;18.93;55.94
18527;BME280;9393;42.158;24.748;2022-09-13T04:43:56;99195.75;;;19.04;55.58
18527;BME280;9393;42.158;24.748;2022-09-13T04:46:59;99202.88;;;18.71;56.52
18527;BME280;9393;42.158;24.748;2022-09-13T04:50:03;99212.03;;;18.95;55.86
18527;BME280;9393;42.158;24.748;2022-09-13T04:53:06;99212.44;;;18.92;56.51
18527;BME280;9393;42.158;24.748;2022-09-13T04:56:11;99214.88;;;19.06;55.70
18527;BME280;9393;42.158;24.748;2022-09-13T04:59:16;99211.59;;;19.31;54.98
18527;BME280;9393;42.158;24.748;2022-09-13T05:02:19;99224.81;;;19.11;55.96
18527;BME280;9393;42.158;24.748;2022-09-13T05:05:23;99221.78;;;19.27;55.26
18527;BME280;9393;42.158;24.748;2022-09-13T05:08:29;99220.75;;;19.22;55.57
18527;BME280;9393;42.158;24.748;2022-09-13T05:11:34;99216.66;;;19.52;55.57
18527;BME280;9393;42.158;24.748;2022-09-13T05:14:37;99224.41;;;19.40;55.67
18527;BME280;9393;42.158;24.748;2022-09-13T05:17:40;99224.28;;;19.93;54.55
18527;BME280;9393;42.158;24.748;2022-09-13T05:20:44;99219.91;;;19.67;55.53
18527;BME280;9393;42.158;24.748;2022-09-13T05:23:48;99220.09;;;20.30;54.24
18527;BME280;9393;42.158;24.748;2022-09-13T05:26:52;99221.56;;;20.12;54.51
18527;BME280;9393;42.158;24.748;2022-09-13T05:29:56;99228.09;;;20.16;54.29
18527;BME280;9393;42.158;24.748;2022-09-13T05:32:59;99223.88;;;20.47;53.56
18527;BME280;9393;42.158;24.748;2022-09-13T05:36:02;99220.25;;;20.97;52.03
18527;BME280;9393;42.158;24.748;2022-09-13T05:39:07;99211.09;;;20.93;52.07
18527;BME280;9393;42.158;24.748;2022-09-13T05:42:35;99210.03;;;21.26;51.09
18527;BME280;9393;42.158;24.748;2022-09-13T05:45:38;99218.25;;;21.42;50.71
18527;BME280;9393;42.158;24.748;2022-09-13T05:48:42;99217.25;;;21.61;50.50
18527;BME280;9393;42.158;24.748;2022-09-13T05:51:47;99214.81;;;22.14;49.83
18527;BME280;9393;42.158;24.748;2022-09-13T05:54:51;99215.84;;;21.77;50.51
18527;BME280;9393;42.158;24.748;2022-09-13T05:57:56;99209.06;;;21.63;51.12
18527;BME280;9393;42.158;24.748;2022-09-13T06:00:59;99214.25;;;21.94;50.54
18527;BME280;9393;42.158;24.748;2022-09-13T06:04:02;99212.81;;;22.10;50.55
18527;BME280;9393;42.158;24.748;2022-09-13T06:07:06;99214.94;;;22.49;49.97
18527;BME280;9393;42.158;24.748;2022-09-13T06:10:09;99219.09;;;22.75;49.27
18527;BME280;9393;42.158;24.748;2022-09-13T06:13:14;99207.91;;;22.25;50.04
18527;BME280;9393;42.158;24.748;2022-09-13T06:16:18;99220.69;;;22.76;48.48
18527;BME280;9393;42.158;24.748;2022-09-13T06:19:21;99221.69;;;22.63;48.72
18527;BME280;9393;42.158;24.748;2022-09-13T06:22:24;99220.94;;;22.75;48.78
18527;BME280;9393;42.158;24.748;2022-09-13T06:25:33;99224.47;;;22.27;49.50
18527;BME280;9393;42.158;24.748;2022-09-13T06:28:38;99227.44;;;22.90;48.17
18527;BME280;9393;42.158;24.748;2022-09-13T06:31:41;99227.53;;;22.84;47.96
18527;BME280;9393;42.158;24.748;2022-09-13T06:34:46;99240.09;;;23.06;47.75
18527;BME280;9393;42.158;24.748;2022-09-13T06:37:49;99231.78;;;22.73;48.25
18527;BME280;9393;42.158;24.748;2022-09-13T06:40:59;99236.19;;;22.79;48.38
18527;BME280;9393;42.158;24.748;2022-09-13T06:44:04;99242.19;;;23.39;46.94
18527;BME280;9393;42.158;24.748;2022-09-13T06:47:07;99233.28;;;23.45;47.07
18527;BME280;9393;42.158;24.748;2022-09-13T06:50:10;99241.88;;;24.22;45.24
18527;BME280;9393;42.158;24.748;2022-09-13T06:53:14;99241.94;;;24.27;44.97
18527;BME280;9393;42.158;24.748;2022-09-13T06:56:19;99242.13;;;23.97;45.33
18527;BME280;9393;42.158;24.748;2022-09-13T06:59:24;99242.19;;;23.74;44.68
18527;BME280;9393;42.158;24.748;2022-09-13T07:02:27;99252.38;;;24.29;44.17
18527;BME280;9393;42.158;24.748;2022-09-13T07:05:30;99242.75;;;24.28;44.76
18527;BME280;9393;42.158;24.748;2022-09-13T07:08:33;99247.94;;;24.91;43.05
18527;BME280;9393;42.158;24.748;2022-09-13T07:11:39;99250.38;;;24.92;42.75
18527;BME280;9393;42.158;24.748;2022-09-13T07:14:44;99249.88;;;24.50;43.78
18527;BME280;9393;42.158;24.748;2022-09-13T07:17:53;99252.63;;;24.55;43.63
18527;BME280;9393;42.158;24.748;2022-09-13T07:21:01;99255.41;;;24.89;42.30
18527;BME280;9393;42.158;24.748;2022-09-13T07:24:05;99251.63;;;24.45;42.89
18527;BME280;9393;42.158;24.748;2022-09-13T07:27:08;99256.91;;;25.35;41.98
18527;BME280;9393;42.158;24.748;2022-09-13T07:30:13;99260.59;;;26.05;40.84
18527;BME280;9393;42.158;24.748;2022-09-13T07:33:17;99260.78;;;25.77;40.78
18527;BME280;9393;42.158;24.748;2022-09-13T07:36:20;99264.31;;;26.48;39.27
18527;BME280;9393;42.158;24.748;2022-09-13T07:39:24;99261.47;;;26.54;39.71
18527;BME280;9393;42.158;24.748;2022-09-13T07:42:28;99262.97;;;26.02;39.98
18527;BME280;9393;42.158;24.748;2022-09-13T07:45:32;99261.28;;;26.39;39.23
18527;BME280;9393;42.158;24.748;2022-09-13T07:48:37;99256.56;;;26.73;39.20
18527;BME280;9393;42.158;24.748;2022-09-13T07:51:42;99261.88;;;26.20;38.89
18527;BME280;9393;42.158;24.748;2022-09-13T07:54:46;99253.69;;;26.53;38.52
18527;BME280;9393;42.158;24.748;2022-09-13T07:57:49;99259.53;;;26.50;38.88
18527;BME280;9393;42.158;24.748;2022-09-13T08:00:54;99255.19;;;26.71;38.01
18527;BME280;9393;42.158;24.748;2022-09-13T08:04:01;99259.00;;;26.26;38.89
18527;BME280;9393;42.158;24.748;2022-09-13T08:07:05;99256.78;;;26.45;37.49
18527;BME280;9393;42.158;24.748;2022-09-13T08:10:08;99246.34;;;26.65;37.08
18527;BME280;9393;42.158;24.748;2022-09-13T08:13:12;99246.50;;;26.32;37.19
18527;BME280;9393;42.158;24.748;2022-09-13T08:16:20;99252.97;;;27.21;36.34
18527;BME280;9393;42.158;24.748;2022-09-13T08:19:24;99238.00;;;27.20;35.51
18527;BME280;9393;42.158;24.748;2022-09-13T08:22:28;99238.88;;;26.72;37.10
18527;BME280;9393;42.158;24.748;2022-09-13T08:25:31;99245.84;;;26.20;37.46
18527;BME280;9393;42.158;24.748;2022-09-13T08:28:36;99245.16;;;27.15;36.75
18527;BME280;9393;42.158;24.748;2022-09-13T08:31:42;99249.06;;;27.34;36.34
18527;BME280;9393;42.158;24.748;2022-09-13T08:34:46;99244.00;;;27.37;36.50
18527;BME280;9393;42.158;24.748;2022-09-13T08:37:49;99247.25;;;27.07;35.65
18527;BME280;9393;42.158;24.748;2022-09-13T08:40:54;99248.72;;;28.14;33.68
18527;BME280;9393;42.158;24.748;2022-09-13T08:44:02;99255.41;;;26.91;34.18
18527;BME280;9393;42.158;24.748;2022-09-13T08:47:27;99240.72;;;27.72;33.19
18527;BME280;9393;42.158;24.748;2022-09-13T08:50:33;99242.72;;;27.08;33.41
18527;BME280;9393;42.158;24.748;2022-09-13T08:53:43;99238.38;;;27.86;32.92
18527;BME280;9393;42.158;24.748;2022-09-13T08:56:51;99245.16;;;27.98;32.93
18527;BME280;9393;42.158;24.748;2022-09-13T09:00:03;99222.81;;;28.40;31.93
18527;BME280;9393;42.158;24.748;2022-09-13T09:03:19;99230.53;;;28.26;32.06
18527;BME280;9393;42.158;24.748;2022-09-13T09:06:25;99221.13;;;28.19;32.92
18527;BME280;9393;42.158;24.748;2022-09-13T09:09:30;99220.91;;;27.31;33.84
18527;BME280;9393;42.158;24.748;2022-09-13T09:12:38;99222.78;;;26.94;34.05
18527;BME280;9393;42.158;24.748;2022-09-13T09:15:46;99226.72;;;26.86;33.85
18527;BME280;9393;42.158;24.748;2022-09-13T09:18:53;99212.00;;;26.57;34.81
18527;BME280;9393;42.158;24.748;2022-09-13T09:22:01;99222.94;;;26.07;35.75
18527;BME280;9393;42.158;24.748;2022-09-13T09:25:09;99212.88;;;25.71;35.91
18527;BME280;9393;42.158;24.748;2022-09-13T09:28:15;99217.19;;;25.55;36.03
18527;BME280;9393;42.158;24.748;2022-09-13T09:31:26;99213.25;;;25.41;36.56
18527;BME280;9393;42.158;24.748;2022-09-13T09:34:42;99212.84;;;25.32;36.02
18527;BME280;9393;42.158;24.748;2022-09-13T09:38:10;99216.00;;;25.29;36.93
18527;BME280;9393;42.158;24.748;2022-09-13T09:41:24;99220.22;;;25.25;36.48
18527;BME280;9393;42.158;24.748;2022-09-13T09:44:30;99218.81;;;25.39;36.27
18527;BME280;9393;42.158;24.748;2022-09-13T09:47:42;99221.75;;;25.54;36.46
18527;BME280;9393;42.158;24.748;2022-09-13T09:50:50;99223.59;;;25.54;35.93
18527;BME280;9393;42.158;24.748;2022-09-13T09:53:59;99227.34;;;25.96;35.81
18527;BME280;9393;42.158;24.748;2022-09-13T09:57:06;99226.59;;;26.01;35.05
18527;BME280;9393;42.158;24.748;2022-09-13T10:00:11;99225.31;;;26.25;34.84
18527;BME280;9393;42.158;24.748;2022-09-13T10:03:18;99224.63;;;25.91;35.74
18527;BME280;9393;42.158;24.748;2022-09-13T10:06:24;99226.84;;;25.78;34.77
18527;BME280;9393;42.158;24.748;2022-09-13T10:09:29;99225.84;;;25.62;35.05
18527;BME280;9393;42.158;24.748;2022-09-13T10:12:34;99220.34;;;25.52;35.83
18527;BME280;9393;42.158;24.748;2022-09-13T10:15:51;99217.41;;;25.70;35.59
18527;BME280;9393;42.158;24.748;2022-09-13T10:19:22;99208.34;;;25.71;35.50
18527;BME280;9393;42.158;24.748;2022-09-13T10:22:30;99205.91;;;25.91;35.13
18527;BME280;9393;42.158;24.748;2022-09-13T10:25:34;99203.28;;;26.40;34.37
18527;BME280;9393;42.158;24.748;2022-09-13T10:28:43;99201.59;;;26.87;34.06
18527;BME280;9393;42.158;24.748;2022-09-13T10:31:50;99199.69;;;26.56;33.97
18527;BME280;9393;42.158;24.748;2022-09-13T10:35:05;99200.06;;;26.70;33.70
18527;BME280;9393;42.158;24.748;2022-09-13T10:38:19;99185.09;;;26.42;33.17
18527;BME280;9393;42.158;24.748;2022-09-13T10:41:28;99178.88;;;26.63;33.25
18527;BME280;9393;42.158;24.748;2022-09-13T10:44:38;99179.81;;;26.47;33.44
18527;BME280;9393;42.158;24.748;2022-09-13T10:48:11;99179.16;;;27.30;33.22
18527;BME280;9393;42.158;24.748;2022-09-13T10:51:28;99181.22;;;27.60;32.11
18527;BME280;9393;42.158;24.748;2022-09-13T10:54:34;99174.88;;;27.81;31.52
18527;BME280;9393;42.158;24.748;2022-09-13T10:57:37;99171.78;;;27.52;31.52
18527;BME280;9393;42.158;24.748;2022-09-13T11:04:56;99160.63;;;26.55;32.83
18527;BME280;9393;42.158;24.748;2022-09-13T11:08:33;99159.31;;;26.84;32.75
18527;BME280;9393;42.158;24.748;2022-09-13T11:11:46;99158.28;;;26.32;32.46
18527;BME280;9393;42.158;24.748;2022-09-13T11:15:01;99146.84;;;26.14;33.30
18527;BME280;9393;42.158;24.748;2022-09-13T11:18:47;99144.69;;;26.65;32.74
18527;BME280;9393;42.158;24.748;2022-09-13T11:25:32;99149.81;;;26.72;33.50
18527;BME280;9393;42.158;24.748;2022-09-13T11:28:49;99147.63;;;27.00;32.97
18527;BME280;9393;42.158;24.748;2022-09-13T11:32:06;99149.94;;;27.29;31.13
18527;BME280;9393;42.158;24.748;2022-09-13T11:35:33;99129.59;;;27.28;30.23
18527;BME280;9393;42.158;24.748;2022-09-13T11:38:50;99132.16;;;27.07;30.79
18527;BME280;9393;42.158;24.748;2022-09-13T11:42:06;99141.91;;;27.24;31.56
18527;BME280;9393;42.158;24.748;2022-09-13T11:45:21;99137.44;;;26.97;31.33
18527;BME280;9393;42.158;24.748;2022-09-13T11:48:45;99130.00;;;26.73;31.66
18527;BME280;9393;42.158;24.748;2022-09-13T11:52:01;99125.63;;;26.56;31.33
18527;BME280;9393;42.158;24.748;2022-09-13T11:55:13;99128.41;;;26.40;31.88
18527;BME280;9393;42.158;24.748;2022-09-13T11:58:23;99130.34;;;26.44;32.06
18527;BME280;9393;42.158;24.748;2022-09-13T12:01:34;99127.56;;;26.34;32.50
18527;BME280;9393;42.158;24.748;2022-09-13T12:04:46;99120.50;;;26.55;32.64
18527;BME280;9393;42.158;24.748;2022-09-13T12:08:17;99127.03;;;26.69;32.35
18527;BME280;9393;42.158;24.748;2022-09-13T12:11:24;99133.72;;;26.98;32.41
18527;BME280;9393;42.158;24.748;2022-09-13T12:14:35;99133.19;;;27.01;31.35
18527;BME280;9393;42.158;24.748;2022-09-13T12:17:43;99124.78;;;27.97;30.12
18527;BME280;9393;42.158;24.748;2022-09-13T12:20:49;99130.25;;;28.27;29.11
18527;BME280;9393;42.158;24.748;2022-09-13T12:23:56;99118.72;;;28.17;29.29
18527;BME280;9393;42.158;24.748;2022-09-13T12:27:05;99131.28;;;28.11;28.94
18527;BME280;9393;42.158;24.748;2022-09-13T12:30:21;99127.06;;;28.60;28.71
18527;BME280;9393;42.158;24.748;2022-09-13T12:33:27;99126.78;;;28.92;28.04
18527;BME280;9393;42.158;24.748;2022-09-13T12:36:44;99119.28;;;28.69;27.93
18527;BME280;9393;42.158;24.748;2022-09-13T12:40:13;99123.00;;;29.03;27.96
18527;BME280;9393;42.158;24.748;2022-09-13T12:47:57;99107.75;;;28.84;27.72
18527;BME280;9393;42.158;24.748;2022-09-13T12:51:16;99116.31;;;28.50;28.30
18527;BME280;9393;42.158;24.748;2022-09-13T12:54:38;99109.38;;;28.70;28.31
18527;BME280;9393;42.158;24.748;2022-09-13T12:57:51;99116.59;;;28.69;28.61
18527;BME280;9393;42.158;24.748;2022-09-13T13:01:07;99105.56;;;28.66;27.97
18527;BME280;9393;42.158;24.748;2022-09-13T13:04:14;99104.25;;;28.73;28.24
18527;BME280;9393;42.158;24.748;2022-09-13T13:07:20;99104.53;;;28.67;28.39
18527;BME280;9393;42.158;24.748;2022-09-13T13:10:27;99112.81;;;28.25;28.93
18527;BME280;9393;42.158;24.748;2022-09-13T13:13:35;99108.03;;;28.77;28.94
18527;BME280;9393;42.158;24.748;2022-09-13T13:16:38;99114.13;;;29.08;28.97
18527;BME280;9393;42.158;24.748;2022-09-13T13:19:42;99106.34;;;29.27;28.24
18527;BME280;9393;42.158;24.748;2022-09-13T13:22:49;99103.63;;;29.22;28.26
18527;BME280;9393;42.158;24.748;2022-09-13T13:26:09;99107.88;;;29.38;27.97
18527;BME280;9393;42.158;24.748;2022-09-13T13:29:17;99108.53;;;28.94;28.30
18527;BME280;9393;42.158;24.748;2022-09-13T13:32:22;99117.09;;;28.96;28.22
18527;BME280;9393;42.158;24.748;2022-09-13T13:35:29;99114.34;;;29.37;27.61
18527;BME280;9393;42.158;24.748;2022-09-13T13:38:47;99114.66;;;29.30;27.86
18527;BME280;9393;42.158;24.748;2022-09-13T13:41:54;99110.13;;;28.35;28.34
18527;BME280;9393;42.158;24.748;2022-09-13T13:45:15;99111.50;;;28.57;28.32
18527;BME280;9393;42.158;24.748;2022-09-13T13:48:35;99115.34;;;27.64;29.38
18527;BME280;9393;42.158;24.748;2022-09-13T13:51:39;99119.22;;;28.14;28.71
18527;BME280;9393;42.158;24.748;2022-09-13T13:55:00;99109.06;;;28.16;28.40
18527;BME280;9393;42.158;24.748;2022-09-13T13:58:14;99117.66;;;28.43;28.04
18527;BME280;9393;42.158;24.748;2022-09-13T14:01:26;99121.84;;;27.88;28.91
18527;BME280;9393;42.158;24.748;2022-09-13T14:04:53;99130.00;;;28.24;28.69
18527;BME280;9393;42.158;24.748;2022-09-13T14:08:22;99134.66;;;27.71;28.96
18527;BME280;9393;42.158;24.748;2022-09-13T14:11:40;99140.56;;;27.83;29.68
18527;BME280;9393;42.158;24.748;2022-09-13T14:15:01;99132.94;;;28.32;28.40
18527;BME280;9393;42.158;24.748;2022-09-13T14:22:10;99136.97;;;28.90;28.49
18527;BME280;9393;42.158;24.748;2022-09-13T14:25:22;99143.56;;;27.97;29.18
18527;BME280;9393;42.158;24.748;2022-09-13T14:28:27;99137.47;;;28.22;28.95
18527;BME280;9393;42.158;24.748;2022-09-13T14:31:31;99138.84;;;28.29;28.85
18527;BME280;9393;42.158;24.748;2022-09-13T14:34:36;99142.88;;;28.42;28.97
18527;BME280;9393;42.158;24.748;2022-09-13T14:37:40;99149.31;;;28.61;28.46
18527;BME280;9393;42.158;24.748;2022-09-13T14:40:47;99142.88;;;28.57;28.34
18527;BME280;9393;42.158;24.748;2022-09-13T14:43:52;99140.75;;;28.84;28.82
18527;BME280;9393;42.158;24.748;2022-09-13T14:47:06;99139.16;;;28.78;27.74
18527;BME280;9393;42.158;24.748;2022-09-13T14:50:16;99143.69;;;29.03;27.73
18527;BME280;9393;42.158;24.748;2022-09-13T14:53:23;99142.56;;;29.14;27.89
18527;BME280;9393;42.158;24.748;2022-09-13T14:56:31;99147.72;;;28.95;28.24
18527;BME280;9393;42.158;24.748;2022-09-13T14:59:43;99145.28;;;28.53;27.53
18527;BME280;9393;42.158;24.748;2022-09-13T15:02:48;99141.56;;;28.75;27.49
18527;BME280;9393;42.158;24.748;2022-09-13T15:05:55;99141.00;;;28.47;27.72
18527;BME280;9393;42.158;24.748;2022-09-13T15:09:01;99140.19;;;28.57;27.74
18527;BME280;9393;42.158;24.748;2022-09-13T15:12:22;99143.44;;;28.84;27.67
18527;BME280;9393;42.158;24.748;2022-09-13T15:15:36;99138.84;;;28.49;28.10
18527;BME280;9393;42.158;24.748;2022-09-13T15:18:39;99141.25;;;28.46;28.24
18527;BME280;9393;42.158;24.748;2022-09-13T15:21:43;99142.31;;;28.65;27.69
18527;BME280;9393;42.158;24.748;2022-09-13T15:24:49;99135.34;;;28.49;27.53
18527;BME280;9393;42.158;24.748;2022-09-13T15:27:54;99145.88;;;28.71;27.65
18527;BME280;9393;42.158;24.748;2022-09-13T15:31:00;99141.56;;;28.54;27.58
18527;BME280;9393;42.158;24.748;2022-09-13T15:34:11;99141.00;;;28.57;27.45
18527;BME280;9393;42.158;24.748;2022-09-13T15:37:32;99139.63;;;28.20;27.40
18527;BME280;9393;42.158;24.748;2022-09-13T15:40:41;99142.06;;;28.31;27.30
18527;BME280;9393;42.158;24.748;2022-09-13T15:43:47;99142.88;;;28.27;27.63
18527;BME280;9393;42.158;24.748;2022-09-13T15:46:53;99142.50;;;27.98;28.02
18527;BME280;9393;42.158;24.748;2022-09-13T15:49:56;99157.81;;;28.07;28.38
18527;BME280;9393;42.158;24.748;2022-09-13T15:53:00;99157.09;;;27.65;28.88
18527;BME280;9393;42.158;24.748;2022-09-13T15:56:04;99163.97;;;27.41;29.14
18527;BME280;9393;42.158;24.748;2022-09-13T15:59:11;99166.38;;;27.00;29.72
18527;BME280;9393;42.158;24.748;2022-09-13T16:02:19;99161.66;;;26.81;30.20
18527;BME280;9393;42.158;24.748;2022-09-13T16:05:23;99160.84;;;26.80;30.33
18527;BME280;9393;42.158;24.748;2022-09-13T16:08:26;99163.47;;;26.43;31.03
18527;BME280;9393;42.158;24.748;2022-09-13T16:11:30;99167.22;;;26.42;31.19
18527;BME280;9393;42.158;24.748;2022-09-13T16:14:33;99170.25;;;26.51;31.16
18527;BME280;9393;42.158;24.748;2022-09-13T16:17:38;99163.59;;;26.27;30.88
18527;BME280;9393;42.158;24.748;2022-09-13T16:20:41;99161.66;;;26.22;31.02
18527;BME280;9393;42.158;24.748;2022-09-13T16:23:44;99165.16;;;26.23;31.33
18527;BME280;9393;42.158;24.748;2022-09-13T16:26:48;99167.25;;;26.21;31.24
18527;BME280;9393;42.158;24.748;2022-09-13T16:29:51;99165.38;;;26.21;31.29
18527;BME280;9393;42.158;24.748;2022-09-13T16:32:56;99171.31;;;26.23;31.61
18527;BME280;9393;42.158;24.748;2022-09-13T16:35:59;99172.91;;;26.24;31.73
18527;BME280;9393;42.158;24.748;2022-09-13T16:39:03;99163.91;;;26.08;31.96
18527;BME280;9393;42.158;24.748;2022-09-13T16:42:07;99184.22;;;26.09;31.98
18527;BME280;9393;42.158;24.748;2022-09-13T16:45:10;99168.63;;;26.01;32.41
18527;BME280;9393;42.158;24.748;2022-09-13T16:48:16;99173.66;;;25.98;32.97
18527;BME280;9393;42.158;24.748;2022-09-13T16:51:19;99177.59;;;25.90;33.45
18527;BME280;9393;42.158;24.748;2022-09-13T16:54:22;99178.03;;;25.82;33.84